Time;durP1;ratioP1;P1;durP2;ratioP2;P2;SDS_P1;SDS_P2;PMS_P1;PMS_P2;Temp;Humidity;BMP_temperature;BMP_pressure;BME280_temperature;BME280_humidity;BME280_pressure;Samples;Min_cycle;Max_cycle;Signal;HPM_P1;HPM_P2
2024/01/25 00:02:13;;;;;;;;;;;;;;;17.19;43.60;100692.56;10327914;28;782;-75
2024/01/25 00:07:09;;;;;;;;;;;;;;;17.18;43.55;100696.09;10327599;28;834;-75
2024/01/25 00:12:06;;;;;;;;;;;;;;;17.18;43.43;100698.72;10327488;28;862;-75
2024/01/25 00:17:01;;;;;;;;;;;;;;;17.18;43.50;100690.81;10327232;28;1940;-75
2024/01/25 00:21:57;;;;;;;;;;;;;;;17.17;43.51;100694.38;10327080;28;792;-75
2024/01/25 00:26:53;;;;;;;;;;;;;;;17.17;43.50;100694.38;10326783;28;1256;-75
2024/01/25 00:31:49;;;;;;;;;;;;;;;17.16;43.49;100692.66;10327239;28;807;-75
2024/01/25 00:36:45;;;;;;;;;;;;;;;17.16;43.56;100697.94;10327447;28;1978;-75
2024/01/25 00:41:41;;;;;;;;;;;;;;;17.15;43.41;100708.50;10325821;28;823;-75
2024/01/25 00:46:37;;;;;;;;;;;;;;;17.15;43.48;100705.84;10326168;28;834;-75
2024/01/25 00:51:33;;;;;;;;;;;;;;;17.15;43.36;100716.41;10326685;28;882;-75
2024/01/25 00:56:29;;;;;;;;;;;;;;;17.14;43.40;100710.28;10325155;28;1893;-76
2024/01/25 01:01:25;;;;;;;;;;;;;;;17.14;43.41;100712.03;10325710;28;951;-75
2024/01/25 01:06:21;;;;;;;;;;;;;;;17.14;43.63;100705.00;10326429;28;881;-75
2024/01/25 01:11:17;;;;;;;;;;;;;;;17.13;43.48;100705.03;10325648;28;795;-75
2024/01/25 01:16:12;;;;;;;;;;;;;;;17.12;43.43;100714.69;10324891;28;1945;-75
2024/01/25 01:21:08;;;;;;;;;;;;;;;17.13;43.32;100710.28;10325447;28;877;-75
2024/01/25 01:26:04;;;;;;;;;;;;;;;17.11;43.51;100718.25;10325734;28;1097;-75
2024/01/25 01:31:00;;;;;;;;;;;;;;;17.11;43.58;100710.34;10325826;28;820;-75
2024/01/25 01:35:56;;;;;;;;;;;;;;;17.12;43.30;100709.44;10325017;28;1910;-75
2024/01/25 01:40:52;;;;;;;;;;;;;;;17.12;43.53;100713.84;10325635;28;787;-75
2024/01/25 01:45:48;;;;;;;;;;;;;;;17.11;43.31;100723.53;10324336;28;921;-75
2024/01/25 01:50:43;;;;;;;;;;;;;;;17.11;43.50;100734.06;10325503;28;972;-75
2024/01/25 01:55:40;;;;;;;;;;;;;;;17.10;43.29;100740.22;10324959;28;1898;-75
2024/01/25 02:00:36;;;;;;;;;;;;;;;17.09;43.41;100749.03;10324613;28;887;-75
2024/01/25 02:05:31;;;;;;;;;;;;;;;17.09;43.52;100749.03;10324590;28;774;-75
2024/01/25 02:10:27;;;;;;;;;;;;;;;17.10;43.46;100758.66;10324660;28;963;-75
2024/01/25 02:15:23;;;;;;;;;;;;;;;17.09;43.50;100755.16;10325964;28;1906;-75
2024/01/25 02:20:19;;;;;;;;;;;;;;;17.08;43.21;100763.09;10332431;28;817;-75
2024/01/25 02:25:15;;;;;;;;;;;;;;;17.07;43.33;100759.59;10331466;28;1419;-75
2024/01/25 02:30:11;;;;;;;;;;;;;;;17.08;43.38;100765.72;10332060;28;826;-75
2024/01/25 02:35:07;;;;;;;;;;;;;;;17.08;43.26;100770.97;10331237;28;1972;-75
2024/01/25 02:40:03;;;;;;;;;;;;;;;17.08;43.42;100776.25;10331614;28;810;-75
2024/01/25 02:44:59;;;;;;;;;;;;;;;17.07;43.24;100778.03;10331652;28;814;-75
2024/01/25 02:49:55;;;;;;;;;;;;;;;17.06;43.40;100765.78;10330738;28;778;-75
2024/01/25 02:54:51;;;;;;;;;;;;;;;17.07;43.20;100770.13;10330515;28;1902;-75
2024/01/25 02:59:47;;;;;;;;;;;;;;;17.06;43.47;100780.72;10330323;28;946;-75
2024/01/25 03:04:43;;;;;;;;;;;;;;;17.06;43.25;100789.47;10330247;28;885;-75
2024/01/25 03:09:38;;;;;;;;;;;;;;;17.05;43.36;100784.22;10330706;28;922;-75
2024/01/25 03:14:34;;;;;;;;;;;;;;;17.05;43.44;100794.78;10329977;28;1898;-75
2024/01/25 03:19:30;;;;;;;;;;;;;;;17.05;43.04;100795.63;10330258;28;859;-75
2024/01/25 03:24:26;;;;;;;;;;;;;;;17.05;43.28;100795.63;10329984;28;1090;-75
2024/01/25 03:29:22;;;;;;;;;;;;;;;17.05;43.27;100811.44;10329954;28;1331;-75
2024/01/25 03:34:18;;;;;;;;;;;;;;;17.05;43.27;100807.94;10329686;28;850;-75
2024/01/25 03:39:14;;;;;;;;;;;;;;;17.03;43.21;100818.53;10329011;28;1902;-75
2024/01/25 03:44:09;;;;;;;;;;;;;;;17.05;43.23;100829.00;10329895;28;936;-75
2024/01/25 03:49:05;;;;;;;;;;;;;;;17.05;43.37;100823.75;10328786;28;921;-75
2024/01/25 03:54:01;;;;;;;;;;;;;;;17.04;43.29;100829.94;10328251;28;865;-75
2024/01/25 03:58:57;;;;;;;;;;;;;;;17.04;43.42;100832.56;10328586;28;1902;-75
2024/01/25 04:03:53;;;;;;;;;;;;;;;17.03;43.35;100850.13;10310004;28;765;-75
2024/01/25 04:08:49;;;;;;;;;;;;;;;17.03;43.20;100851.91;10327659;28;738;-75
2024/01/25 04:13:45;;;;;;;;;;;;;;;17.03;43.26;100844.00;10327511;28;938;-75
2024/01/25 04:18:40;;;;;;;;;;;;;;;17.02;43.34;100829.94;10327913;28;1973;-75
2024/01/25 04:23:36;;;;;;;;;;;;;;;17.01;43.25;100838.75;10327680;28;877;-75
2024/01/25 04:28:32;;;;;;;;;;;;;;;17.02;43.48;100835.22;10326326;28;1222;-76
2024/01/25 04:33:28;;;;;;;;;;;;;;;17.03;43.24;100841.38;10326883;28;785;-75
2024/01/25 04:38:24;;;;;;;;;;;;;;;17.02;43.29;100839.63;10326072;28;1913;-75
2024/01/25 04:43:20;;;;;;;;;;;;;;;17.01;43.38;100835.28;10326992;28;869;-75
2024/01/25 04:48:16;;;;;;;;;;;;;;;17.00;43.30;100831.78;10326776;28;862;-75
2024/01/25 04:53:11;;;;;;;;;;;;;;;17.03;43.12;100826.44;10326681;28;846;-75
2024/01/25 04:58:07;;;;;;;;;;;;;;;17.05;43.14;100829.00;10326507;28;1890;-75
2024/01/25 05:03:03;;;;;;;;;;;;;;;17.05;43.35;100848.31;10325818;28;962;-75
2024/01/25 05:07:59;;;;;;;;;;;;;;;17.07;43.28;100846.50;10325628;28;893;-75
2024/01/25 05:12:55;;;;;;;;;;;;;;;17.07;43.14;100854.41;10326146;28;1052;-75
2024/01/25 05:17:51;;;;;;;;;;;;;;;17.09;43.27;100851.75;10325338;28;1945;-75
2024/01/25 05:22:47;;;;;;;;;;;;;;;17.09;43.23;100857.88;10325383;28;842;-75
2024/01/25 05:27:43;;;;;;;;;;;;;;;17.11;43.16;100865.78;10324735;28;1356;-75
2024/01/25 05:32:39;;;;;;;;;;;;;;;17.10;43.00;100866.66;10325826;28;864;-75
2024/01/25 05:37:34;;;;;;;;;;;;;;;17.12;42.96;100864.84;10325034;28;1909;-75
2024/01/25 05:42:30;;;;;;;;;;;;;;;17.12;43.21;100854.31;10325035;28;765;-75
2024/01/25 05:47:26;;;;;;;;;;;;;;;17.12;43.16;100864.84;10324964;28;814;-75
2024/01/25 05:52:23;;;;;;;;;;;;;;;17.15;43.09;100877.09;10330744;28;914;-75
2024/01/25 05:57:20;;;;;;;;;;;;;;;17.14;43.01;100870.97;10333341;28;1956;-75
2024/01/25 06:02:15;;;;;;;;;;;;;;;17.15;42.96;100869.19;10332007;28;918;-75
2024/01/25 06:07:11;;;;;;;;;;;;;;;17.16;43.02;100871.81;10332462;28;979;-75
2024/01/25 06:12:07;;;;;;;;;;;;;;;17.15;42.98;100870.06;10331651;28;884;-75
2024/01/25 06:17:03;;;;;;;;;;;;;;;17.16;43.03;100877.06;10331985;28;1951;-75
2024/01/25 06:21:59;;;;;;;;;;;;;;;17.17;42.95;100880.56;10332478;28;901;-75
2024/01/25 06:26:55;;;;;;;;;;;;;;;17.18;43.05;100882.28;10331648;28;1148;-75
2024/01/25 06:31:51;;;;;;;;;;;;;;;17.17;42.84;100888.47;10331985;28;803;-76
2024/01/25 06:36:47;;;;;;;;;;;;;;;17.17;42.92;100885.84;10331171;28;1973;-76
2024/01/25 06:41:42;;;;;;;;;;;;;;;17.18;43.04;100885.78;10331117;28;790;-77
2024/01/25 06:46:38;;;;;;;;;;;;;;;17.18;42.85;100896.31;10331420;28;825;-77
2024/01/25 06:51:34;;;;;;;;;;;;;;;17.20;42.96;100897.16;10330846;28;774;-76
2024/01/25 06:56:31;;;;;;;;;;;;;;;17.18;42.83;100908.63;10330543;28;1893;-76
2024/01/25 07:01:27;;;;;;;;;;;;;;;17.18;42.78;100927.94;10330639;28;821;-78
2024/01/25 07:06:24;;;;;;;;;;;;;;;17.18;42.78;100932.34;10330262;28;835;-77
2024/01/25 07:11:20;;;;;;;;;;;;;;;17.17;42.85;100926.22;10330206;28;773;-76
2024/01/25 07:16:15;;;;;;;;;;;;;;;17.14;42.86;100926.28;10329561;28;1893;-76
2024/01/25 07:21:11;;;;;;;;;;;;;;;17.13;42.82;100919.25;10329692;28;780;-75
2024/01/25 07:26:07;;;;;;;;;;;;;;;17.09;42.76;100931.66;10330069;28;1259;-76
2024/01/25 07:31:03;;;;;;;;;;;;;;;17.08;42.80;100934.31;10329467;28;874;-76
2024/01/25 07:35:59;;;;;;;;;;;;;;;17.09;42.88;100938.69;10329055;28;1906;-79
2024/01/25 07:40:55;;;;;;;;;;;;;;;17.11;42.97;100928.09;10329618;28;823;-79
2024/01/25 07:45:51;;;;;;;;;;;;;;;17.13;43.01;100935.06;10329310;28;858;-74
2024/01/25 07:50:47;;;;;;;;;;;;;;;17.15;43.06;100945.59;10328024;28;776;-76
2024/01/25 07:55:43;;;;;;;;;;;;;;;17.15;43.22;100941.19;10329359;28;1889;-72
2024/01/25 08:00:39;;;;;;;;;;;;;;;17.15;43.04;100941.19;10328085;28;798;-75
2024/01/25 08:05:35;;;;;;;;;;;;;;;17.21;43.14;100922.63;10329023;28;937;-74
2024/01/25 08:10:31;;;;;;;;;;;;;;;17.23;43.26;100918.16;10327623;28;886;-74
2024/01/25 08:15:26;;;;;;;;;;;;;;;17.25;43.16;100908.47;10326735;28;1961;-77
2024/01/25 08:20:22;;;;;;;;;;;;;;;17.27;43.13;100919.84;10326671;28;913;-74
2024/01/25 08:25:20;;;;;;;;;;;;;;;17.31;43.21;100931.19;10327367;28;1287;-74
2024/01/25 08:30:15;;;;;;;;;;;;;;;17.28;43.20;100925.97;10326795;28;870;-74
2024/01/25 08:35:11;;;;;;;;;;;;;;;17.30;43.25;100934.72;10326674;28;1971;-75
2024/01/25 08:40:09;;;;;;;;;;;;;;;17.30;43.14;100940.00;10326609;28;771;-74
2024/01/25 08:45:07;;;;;;;;;;;;;;;17.33;43.37;100954.88;10326370;28;884;-74
2024/01/25 08:50:03;;;;;;;;;;;;;;;17.34;42.81;100944.28;10326139;28;971;-74
2024/01/25 08:54:59;;;;;;;;;;;;;;;17.34;42.92;100952.19;10326125;28;1961;-74
2024/01/25 08:59:55;;;;;;;;;;;;;;;17.35;42.84;100955.72;10326627;28;866;-74
2024/01/25 09:04:51;;;;;;;;;;;;;;;17.38;42.86;100961.78;10325806;28;873;-74
2024/01/25 09:09:47;;;;;;;;;;;;;;;17.38;42.97;100961.78;10325602;28;912;-74
2024/01/25 09:14:43;;;;;;;;;;;;;;;17.36;42.70;100974.09;10325142;28;1027;-74
2024/01/25 09:19:38;;;;;;;;;;;;;;;17.38;42.92;100972.31;10325402;28;1910;-74
2024/01/25 09:24:36;;;;;;;;;;;;;;;17.40;42.94;100965.25;10325131;28;1018;-74
2024/01/25 09:29:31;;;;;;;;;;;;;;;17.40;42.88;100972.28;10325655;28;1474;-74
2024/01/25 09:34:27;;;;;;;;;;;;;;;17.41;42.81;100969.59;10325488;28;803;-74
2024/01/25 09:39:23;;;;;;;;;;;;;;;17.42;42.71;100973.09;10325008;28;1910;-74
2024/01/25 09:44:19;;;;;;;;;;;;;;;17.41;42.92;100966.09;10325660;28;883;-74
2024/01/25 09:49:15;;;;;;;;;;;;;;;17.38;43.02;100976.72;10324926;28;906;-79
2024/01/25 09:54:11;;;;;;;;;;;;;;;17.35;42.96;100982.06;10324748;28;986;-80
2024/01/25 09:59:07;;;;;;;;;;;;;;;17.34;42.96;100985.59;10325189;28;1898;-79
2024/01/25 10:04:03;;;;;;;;;;;;;;;17.35;42.73;100987.34;10324571;28;872;-80
2024/01/25 10:08:58;;;;;;;;;;;;;;;17.41;42.92;100980.16;10324449;28;888;-76
2024/01/25 10:13:56;;;;;;;;;;;;;;;17.41;42.84;100988.06;10325008;28;873;-76
2024/01/25 10:18:52;;;;;;;;;;;;;;;17.43;42.98;100990.66;10324159;28;1890;-75
2024/01/25 10:23:48;;;;;;;;;;;;;;;17.44;42.96;100990.63;10324179;28;881;-76
2024/01/25 10:28:44;;;;;;;;;;;;;;;17.45;42.88;100979.19;10324237;28;1146;-76
2024/01/25 10:33:40;;;;;;;;;;;;;;;17.48;42.92;100999.34;10323905;28;933;-76
2024/01/25 10:38:36;;;;;;;;;;;;;;;17.48;43.07;100989.66;10328261;28;1909;-74
2024/01/25 10:43:32;;;;;;;;;;;;;;;17.50;42.84;100976.44;10331039;28;981;-74
2024/01/25 10:48:31;;;;;;;;;;;;;;;17.52;42.94;100969.34;10330932;28;865;-74
2024/01/25 10:53:27;;;;;;;;;;;;;;;17.52;43.01;100961.44;10330960;28;856;-74
2024/01/25 10:58:23;;;;;;;;;;;;;;;17.51;42.99;100950.03;10331132;28;1898;-74
2024/01/25 11:03:20;;;;;;;;;;;;;;;17.54;42.97;100943.84;10331036;28;849;-75
2024/01/25 11:08:15;;;;;;;;;;;;;;;17.53;42.86;100952.66;10330183;28;878;-68
2024/01/25 11:13:11;;;;;;;;;;;;;;;17.52;42.88;100953.53;10331273;28;971;-74
2024/01/25 11:18:08;;;;;;;;;;;;;;;17.53;43.07;100942.13;10329789;28;1898;-75
2024/01/25 11:23:04;;;;;;;;;;;;;;;17.54;43.02;100946.47;10329589;28;1002;-74
2024/01/25 11:28:00;;;;;;;;;;;;;;;17.53;43.08;100940.34;10328986;28;1340;-74
2024/01/25 11:32:57;;;;;;;;;;;;;;;17.57;43.04;100933.22;10328614;28;1171;-74
2024/01/25 11:37:53;;;;;;;;;;;;;;;17.57;42.84;100929.72;10329035;28;1981;-74
2024/01/25 11:42:49;;;;;;;;;;;;;;;17.57;42.71;100906.00;10329501;28;857;-75
2024/01/25 11:47:45;;;;;;;;;;;;;;;17.56;42.88;100897.22;10328219;28;766;-75
2024/01/25 11:52:41;;;;;;;;;;;;;;;17.57;42.79;100898.94;10328936;28;878;-75
2024/01/25 11:57:40;;;;;;;;;;;;;;;17.58;42.79;100892.78;10328703;28;1902;-75
2024/01/25 12:02:36;;;;;;;;;;;;;;;17.58;42.64;100898.06;10328001;28;851;-74
2024/01/25 12:07:32;;;;;;;;;;;;;;;17.57;42.54;100880.50;10327794;28;783;-78
2024/01/25 12:12:28;;;;;;;;;;;;;;;17.57;42.52;100893.66;10327573;28;929;-74
2024/01/25 12:17:24;;;;;;;;;;;;;;;17.61;42.69;100876.03;10326940;28;1898;-75
2024/01/25 12:22:20;;;;;;;;;;;;;;;17.61;42.49;100868.97;10327266;28;774;-75
2024/01/25 12:27:16;;;;;;;;;;;;;;;17.60;42.49;100864.59;10327408;28;1300;-74
2024/01/25 12:32:12;;;;;;;;;;;;;;;17.62;42.73;100857.50;10327513;28;932;-75
2024/01/25 12:37:08;;;;;;;;;;;;;;;17.63;42.68;100850.47;10326564;28;1905;-76
2024/01/25 12:42:04;;;;;;;;;;;;;;;17.65;42.54;100851.31;10327093;28;879;-76
2024/01/25 12:47:02;;;;;;;;;;;;;;;17.65;42.56;100853.94;10326921;28;791;-75
2024/01/25 12:51:58;;;;;;;;;;;;;;;17.60;42.63;100845.28;10326163;28;973;-76
2024/01/25 12:56:54;;;;;;;;;;;;;;;17.60;42.53;100840.88;10326568;28;1894;-76
2024/01/25 13:01:50;;;;;;;;;;;;;;;17.62;42.55;100846.97;10325506;28;775;-75
2024/01/25 13:06:46;;;;;;;;;;;;;;;17.63;42.50;100850.47;10326425;28;862;-74
2024/01/25 13:11:41;;;;;;;;;;;;;;;17.63;42.50;100839.91;10326262;28;917;-75
2024/01/25 13:16:37;;;;;;;;;;;;;;;17.67;42.59;100833.69;10326171;28;1914;-75
2024/01/25 13:21:33;;;;;;;;;;;;;;;17.67;42.44;100834.53;10325427;28;986;-76
2024/01/25 13:26:29;;;;;;;;;;;;;;;17.63;42.55;100822.34;10325553;28;1248;-75
2024/01/25 13:31:25;;;;;;;;;;;;;;;17.65;42.66;100823.16;10325244;28;999;-75
2024/01/25 13:36:21;;;;;;;;;;;;;;;17.65;42.50;100825.78;10325730;28;1905;-76
2024/01/25 13:41:17;;;;;;;;;;;;;;;17.65;42.40;100828.44;10325056;28;909;-75
2024/01/25 13:46:13;;;;;;;;;;;;;;;17.66;42.63;100840.72;10325556;28;875;-76
2024/01/25 13:51:09;;;;;;;;;;;;;;;17.65;42.59;100833.69;10325467;28;783;-76
2024/01/25 13:56:05;;;;;;;;;;;;;;;17.66;42.61;100834.59;10324771;28;1890;-76
2024/01/25 14:01:01;;;;;;;;;;;;;;;17.67;42.57;100831.03;10324676;28;970;-74
2024/01/25 14:05:57;;;;;;;;;;;;;;;17.68;42.72;100822.22;10324014;28;889;-78
2024/01/25 14:10:53;;;;;;;;;;;;;;;17.63;42.69;100813.56;10325525;28;775;-71
2024/01/25 14:15:48;;;;;;;;;;;;;;;17.55;42.64;100812.88;10332808;28;1957;-74
2024/01/25 14:20:44;;;;;;;;;;;;;;;17.55;42.22;100815.53;10332274;28;813;-72
2024/01/25 14:25:40;;;;;;;;;;;;;;;17.58;42.05;100816.34;10331000;28;1265;-71
2024/01/25 14:30:36;;;;;;;;;;;;;;;17.60;42.00;100814.50;10331376;28;900;-71
2024/01/25 14:35:32;;;;;;;;;;;;;;;17.61;42.03;100800.44;10331184;28;1914;-70
2024/01/25 14:40:28;;;;;;;;;;;;;;;17.61;42.18;100803.06;10331204;28;889;-71
2024/01/25 14:45:24;;;;;;;;;;;;;;;17.62;42.41;100796.88;10332026;28;915;-71
2024/01/25 14:50:20;;;;;;;;;;;;;;;17.62;42.31;100783.69;10330660;28;905;-71
2024/01/25 14:55:16;;;;;;;;;;;;;;;17.64;42.39;100781.88;10329830;28;1898;-71
2024/01/25 15:00:18;;;;;;;;;;;;;;;17.62;42.49;100773.16;10330936;28;810;-70
2024/01/25 15:05:14;;;;;;;;;;;;;;;17.63;42.50;100758.19;10330749;28;822;-70
2024/01/25 15:10:11;;;;;;;;;;;;;;;17.60;42.71;100745.94;10330576;28;839;-71
2024/01/25 15:15:07;;;;;;;;;;;;;;;17.65;42.66;100756.38;10330421;28;1945;-74
2024/01/25 15:20:03;;;;;;;;;;;;;;;17.64;42.66;100750.25;10330386;28;936;-70
2024/01/25 15:24:59;;;;;;;;;;;;;;;17.64;42.72;100752.88;10329279;28;1235;-70
2024/01/25 15:29:55;;;;;;;;;;;;;;;17.64;42.85;100747.63;10329289;28;743;-70
2024/01/25 15:34:50;;;;;;;;;;;;;;;17.66;42.87;100756.34;10329081;28;806;-71
2024/01/25 15:39:46;;;;;;;;;;;;;;;17.64;42.75;100744.13;10329378;28;1973;-71
2024/01/25 15:44:42;;;;;;;;;;;;;;;17.65;42.78;100748.47;10327997;28;957;-70
2024/01/25 15:49:38;;;;;;;;;;;;;;;17.66;42.92;100750.22;10328999;28;945;-71
2024/01/25 15:54:34;;;;;;;;;;;;;;;17.65;42.82;100737.94;10328846;28;810;-71
2024/01/25 15:59:30;;;;;;;;;;;;;;;17.64;42.96;100738.84;10328668;28;1917;-71
2024/01/25 16:04:26;;;;;;;;;;;;;;;17.61;42.98;100726.63;10329277;28;845;-70
2024/01/25 16:09:21;;;;;;;;;;;;;;;17.59;43.12;100719.66;10328476;28;805;-70
2024/01/25 16:14:17;;;;;;;;;;;;;;;17.56;42.92;100717.09;10327830;28;976;-71
2024/01/25 16:19:13;;;;;;;;;;;;;;;17.56;43.23;100715.31;10327442;28;2024;-70
2024/01/25 16:24:09;;;;;;;;;;;;;;;17.57;42.97;100714.41;10327352;28;778;-71
2024/01/25 16:29:05;;;;;;;;;;;;;;;17.56;43.18;100717.09;10326559;28;1485;-70
2024/01/25 16:34:01;;;;;;;;;;;;;;;17.54;43.06;100709.22;10325586;28;896;-70
2024/01/25 16:38:57;;;;;;;;;;;;;;;17.54;42.91;100703.94;10326737;28;1914;-70
2024/01/25 16:43:52;;;;;;;;;;;;;;;17.54;43.00;100703.94;10327230;28;916;-70
2024/01/25 16:48:48;;;;;;;;;;;;;;;17.55;43.12;100700.41;10326318;28;972;-71
2024/01/25 16:53:44;;;;;;;;;;;;;;;17.57;43.11;100695.94;10326251;28;846;-73
2024/01/25 16:58:40;;;;;;;;;;;;;;;17.58;43.05;100696.81;10325982;28;1906;-76
2024/01/25 17:03:36;;;;;;;;;;;;;;;17.57;43.04;100701.22;10325942;28;778;-76
2024/01/25 17:08:32;;;;;;;;;;;;;;;17.58;43.21;100695.06;10326080;28;830;-75
2024/01/25 17:13:28;;;;;;;;;;;;;;;17.58;43.39;100691.53;10325733;28;833;-75
2024/01/25 17:18:24;;;;;;;;;;;;;;;17.60;43.42;100697.63;10326551;28;1906;-76
2024/01/25 17:23:19;;;;;;;;;;;;;;;17.62;43.48;100696.69;10320134;28;1031;-71
2024/01/25 17:28:15;;;;;;;;;;;;;;;17.63;43.44;100694.91;10325097;28;1239;-72
2024/01/25 17:33:11;;;;;;;;;;;;;;;17.64;43.46;100696.66;10324685;28;856;-70
2024/01/25 17:38:07;;;;;;;;;;;;;;;17.62;43.45;100703.75;10324456;28;1973;-69
2024/01/25 17:43:03;;;;;;;;;;;;;;;17.62;43.29;100701.09;10324368;28;822;-71
2024/01/25 17:47:59;;;;;;;;;;;;;;;17.62;43.38;100694.06;10331688;28;815;-71
2024/01/25 17:52:54;;;;;;;;;;;;;;;17.63;43.59;100693.16;10333567;28;803;-72
2024/01/25 17:57:50;;;;;;;;;;;;;;;17.64;43.50;100692.25;10332655;28;1894;-73
2024/01/25 18:02:46;;;;;;;;;;;;;;;17.66;43.36;100677.25;10333571;28;818;-72
2024/01/25 18:07:42;;;;;;;;;;;;;;;17.66;43.26;100671.97;10332428;28;793;-72
2024/01/25 18:12:38;;;;;;;;;;;;;;;17.64;43.42;100665.88;10332189;28;864;-71
2024/01/25 18:17:34;;;;;;;;;;;;;;;17.67;43.37;100660.53;10331998;28;1953;-73
2024/01/25 18:22:30;;;;;;;;;;;;;;;17.67;43.35;100654.38;10332500;28;774;-72
2024/01/25 18:27:26;;;;;;;;;;;;;;;17.67;43.41;100652.59;10331750;28;1251;-72
2024/01/25 18:32:22;;;;;;;;;;;;;;;17.69;43.53;100663.13;10330896;28;1012;-72
2024/01/25 18:37:17;;;;;;;;;;;;;;;17.70;43.37;100656.94;10331044;28;1925;-71
2024/01/25 18:42:13;;;;;;;;;;;;;;;17.68;43.26;100656.09;10331078;28;1047;-71
2024/01/25 18:47:10;;;;;;;;;;;;;;;17.72;43.48;100649.84;10331108;28;822;-71
2024/01/25 18:52:06;;;;;;;;;;;;;;;17.72;43.50;100647.22;10330368;28;875;-71
2024/01/25 18:57:02;;;;;;;;;;;;;;;17.71;43.38;100653.38;10329725;28;1902;-73
2024/01/25 19:01:57;;;;;;;;;;;;;;;17.73;43.39;100646.28;10331143;28;850;-74
2024/01/25 19:06:54;;;;;;;;;;;;;;;17.74;43.41;100653.31;10330793;28;878;-74
2024/01/25 19:11:49;;;;;;;;;;;;;;;17.73;43.29;100652.44;10330049;28;1066;-74
2024/01/25 19:16:45;;;;;;;;;;;;;;;17.75;43.50;100644.47;10329703;28;1906;-73
2024/01/25 19:21:41;;;;;;;;;;;;;;;17.76;43.42;100640.94;10329634;28;854;-74
2024/01/25 19:26:37;;;;;;;;;;;;;;;17.76;43.31;100630.38;10329099;28;1132;-74
2024/01/25 19:31:33;;;;;;;;;;;;;;;17.76;43.51;100630.38;10329270;28;933;-75
2024/01/25 19:36:29;;;;;;;;;;;;;;;17.77;43.29;100626.00;10329031;28;1925;-74
2024/01/25 19:41:25;;;;;;;;;;;;;;;17.77;43.47;100620.72;10328959;28;900;-79
2024/01/25 19:46:21;;;;;;;;;;;;;;;17.73;43.39;100612.88;10329053;28;746;-79
2024/01/25 19:51:16;;;;;;;;;;;;;;;17.74;43.37;100619.91;10327987;28;881;-76
2024/01/25 19:56:13;;;;;;;;;;;;;;;17.74;43.38;100622.53;10327528;28;1959;-74
2024/01/25 20:01:11;;;;;;;;;;;;;;;17.73;43.44;100612.00;10328015;28;933;-75
2024/01/25 20:06:07;;;;;;;;;;;;;;;17.72;43.37;100608.53;10327437;28;913;-74
2024/01/25 20:11:03;;;;;;;;;;;;;;;17.73;43.50;100593.56;10327181;28;937;-74
2024/01/25 20:15:59;;;;;;;;;;;;;;;17.72;43.50;100592.69;10327402;28;1951;-75
2024/01/25 20:20:55;;;;;;;;;;;;;;;17.73;43.51;100583.88;10328161;28;823;-75
2024/01/25 20:25:51;;;;;;;;;;;;;;;17.74;43.29;100587.41;10327245;28;1413;-74
2024/01/25 20:30:47;;;;;;;;;;;;;;;17.71;43.32;100576.91;10327160;28;783;-74
2024/01/25 20:35:42;;;;;;;;;;;;;;;17.72;43.41;100578.66;10326621;28;1979;-74
2024/01/25 20:40:38;;;;;;;;;;;;;;;17.71;43.57;100575.16;10326491;28;752;-76
2024/01/25 20:45:34;;;;;;;;;;;;;;;17.70;43.40;100568.16;10327094;28;916;-75
2024/01/25 20:50:30;;;;;;;;;;;;;;;17.71;43.52;100559.34;10327309;28;917;-75
2024/01/25 20:55:26;;;;;;;;;;;;;;;17.68;43.54;100555.91;10326106;28;1894;-75
2024/01/25 21:00:22;;;;;;;;;;;;;;;17.67;43.52;100547.16;10325903;28;975;-75
2024/01/25 21:05:18;;;;;;;;;;;;;;;17.68;43.71;100540.09;10325167;28;825;-70
2024/01/25 21:10:13;;;;;;;;;;;;;;;17.68;43.83;100546.25;10326206;28;946;-70
2024/01/25 21:15:10;;;;;;;;;;;;;;;17.66;44.00;100545.44;10326267;28;822;-71
2024/01/25 21:20:06;;;;;;;;;;;;;;;17.66;44.18;100548.06;10324973;28;875;-70
2024/01/25 21:25:02;;;;;;;;;;;;;;;17.64;44.10;100547.25;10325008;28;1334;-69
2024/01/25 21:29:58;;;;;;;;;;;;;;;17.65;43.97;100548.09;10325960;28;822;-70
2024/01/25 21:34:54;;;;;;;;;;;;;;;17.63;44.18;100548.16;10325146;28;888;-70
2024/01/25 21:39:50;;;;;;;;;;;;;;;17.63;44.12;100540.25;10324977;28;1906;-71
2024/01/25 21:44:46;;;;;;;;;;;;;;;17.64;44.34;100543.75;10325804;28;838;-70
2024/01/25 21:49:42;;;;;;;;;;;;;;;17.63;44.44;100524.44;10325686;28;885;-70
2024/01/25 21:54:38;;;;;;;;;;;;;;;17.65;44.39;100533.16;10324989;28;860;-72
2024/01/25 21:59:34;;;;;;;;;;;;;;;17.63;44.58;100529.72;10325510;28;1897;-73
2024/01/25 22:04:30;;;;;;;;;;;;;;;17.62;44.62;100527.13;10324737;28;870;-77
2024/01/25 22:09:25;;;;;;;;;;;;;;;17.60;44.46;100516.59;10324641;28;970;-74
2024/01/25 22:14:21;;;;;;;;;;;;;;;17.60;44.90;100515.75;10325162;28;872;-72
2024/01/25 22:19:19;;;;;;;;;;;;;;;17.58;45.13;100518.44;10325039;28;1945;-70
2024/01/25 22:24:14;;;;;;;;;;;;;;;17.57;45.16;100519.34;10324305;28;867;-70
2024/01/25 22:29:10;;;;;;;;;;;;;;;17.55;45.21;100521.16;10325279;28;1089;-71
2024/01/25 22:34:06;;;;;;;;;;;;;;;17.53;45.22;100512.44;10328549;28;802;-71
2024/01/25 22:39:03;;;;;;;;;;;;;;;17.51;45.30;100509.84;10331444;28;1973;-70
2024/01/25 22:43:59;;;;;;;;;;;;;;;17.52;45.27;100514.19;10331870;28;831;-71
2024/01/25 22:48:55;;;;;;;;;;;;;;;17.50;45.25;100501.97;10331271;28;868;-71
2024/01/25 22:53:51;;;;;;;;;;;;;;;17.49;45.29;100500.25;10331792;28;858;-71
2024/01/25 22:58:47;;;;;;;;;;;;;;;17.48;44.98;100491.50;10330624;28;1981;-70
2024/01/25 23:03:43;;;;;;;;;;;;;;;17.47;44.96;100492.38;10331303;28;862;-71
2024/01/25 23:08:39;;;;;;;;;;;;;;;17.45;45.04;100490.72;10331026;28;854;-71
2024/01/25 23:13:35;;;;;;;;;;;;;;;17.44;45.07;100492.47;10329629;28;989;-71
2024/01/25 23:18:31;;;;;;;;;;;;;;;17.46;45.16;100495.06;10330036;28;1902;-71
2024/01/25 23:23:27;;;;;;;;;;;;;;;17.44;44.91;100487.19;10329809;28;1173;-71
2024/01/25 23:28:23;;;;;;;;;;;;;;;17.44;45.04;100481.06;10329836;28;1235;-71
2024/01/25 23:33:21;;;;;;;;;;;;;;;17.43;44.98;100474.94;10330158;28;794;-71
2024/01/25 23:38:17;;;;;;;;;;;;;;;17.44;44.84;100460.00;10329235;28;1918;-71
2024/01/25 23:43:13;;;;;;;;;;;;;;;17.43;45.04;100468.81;10311203;28;775;-71
2024/01/25 23:48:09;;;;;;;;;;;;;;;17.44;45.21;100476.66;10329857;28;869;-70
2024/01/25 23:53:04;;;;;;;;;;;;;;;17.42;44.94;100467.97;10329323;28;798;-71
2024/01/25 23:58:00;;;;;;;;;;;;;;;17.43;45.07;100458.28;10327360;28;1918;-71
